Time;durP1;ratioP1;P1;durP2;ratioP2;P2;SDS_P1;SDS_P2;PMS_P1;PMS_P2;Temp;Humidity;BMP_temperature;BMP_pressure;BME280_temperature;BME280_humidity;BME280_pressure;Samples;Min_cycle;Max_cycle;Signal;HPM_P1;HPM_P2
2021/01/10 00:00:09;;;;;;;2.83;0.25;;;24.90;99.90;;;;;;5050779;28;20399;-78
2021/01/10 00:02:37;;;;;;;0.40;0.15;;;24.70;99.90;;;;;;5051894;28;20386;-78
2021/01/10 00:05:06;;;;;;;1.13;0.30;;;24.80;99.90;;;;;;5050624;28;20033;-79
2021/01/10 00:07:34;;;;;;;2.03;0.30;;;24.90;99.90;;;;;;5052270;28;20477;-83
2021/01/10 00:10:01;;;;;;;1.15;0.30;;;25.20;99.90;;;;;;5032397;28;20036;-81
2021/01/10 00:12:29;;;;;;;0.93;0.20;;;25.60;99.90;;;;;;5104477;22;20061;-79
2021/01/10 00:14:56;;;;;;;0.70;0.20;;;25.90;99.90;;;;;;5067024;22;20064;-81
2021/01/10 00:17:23;;;;;;;11.00;1.08;;;25.90;99.90;;;;;;5070381;28;20108;-82
2021/01/10 00:19:51;;;;;;;1.58;0.20;;;26.10;99.90;;;;;;5071155;22;20062;-81
2021/01/10 00:22:21;;;;;;;2.28;0.63;;;26.30;99.90;;;;;;5052012;28;20158;-82
2021/01/10 00:24:49;;;;;;;1.10;0.20;;;26.30;99.90;;;;;;5050396;28;20044;-82
2021/01/10 00:27:18;;;;;;;0.88;0.30;;;26.40;99.90;;;;;;5050618;28;20035;-83
2021/01/10 00:29:48;;;;;;;1.63;0.30;;;26.70;99.90;;;;;;5082566;22;20202;-84
2021/01/10 00:32:16;;;;;;;1.15;0.20;;;26.80;99.90;;;;;;5063799;28;20036;-81
2021/01/10 00:34:43;;;;;;;0.60;0.30;;;26.80;99.90;;;;;;5071211;28;20043;-81
2021/01/10 00:37:18;;;;;;;0.80;0.30;;;26.30;99.90;;;;;;5071257;28;20032;-80
2021/01/10 00:39:47;;;;;;;1.98;0.22;;;26.00;99.90;;;;;;5068556;28;20030;-83
2021/01/10 00:42:15;;;;;;;1.38;0.28;;;26.20;99.90;;;;;;5071257;28;20056;-83
2021/01/10 00:44:43;;;;;;;0.30;0.10;;;26.50;99.90;;;;;;5076180;22;20020;-82
2021/01/10 00:47:11;;;;;;;0.60;0.30;;;26.90;99.90;;;;;;5051314;28;20478;-81
2021/01/10 00:49:39;;;;;;;2.58;0.30;;;26.80;99.90;;;;;;5050888;28;20467;-85
2021/01/10 00:52:07;;;;;;;0.93;0.28;;;26.70;99.90;;;;;;5051107;28;20025;-83
2021/01/10 00:54:34;;;;;;;0.73;0.22;;;26.90;99.90;;;;;;5050261;28;20148;-82
2021/01/10 00:57:01;;;;;;;0.88;0.20;;;27.20;99.90;;;;;;5050754;28;20017;-83
2021/01/10 00:59:29;;;;;;;1.42;0.60;;;27.40;99.90;;;;;;5054511;28;20032;-83
2021/01/10 01:01:56;;;;;;;5.00;0.82;;;27.90;99.90;;;;;;5056380;28;20025;-83
2021/01/10 01:04:23;;;;;;;1.98;0.30;;;28.10;99.90;;;;;;5052169;28;20035;-84
2021/01/10 01:06:51;;;;;;;3.20;0.40;;;27.90;99.90;;;;;;5056149;28;20025;-85
2021/01/10 01:09:18;;;;;;;2.60;0.43;;;27.80;99.90;;;;;;5058067;28;20435;-83
2021/01/10 01:11:46;;;;;;;2.78;0.30;;;27.70;99.90;;;;;;5038669;28;20029;-85
2021/01/10 01:14:13;;;;;;;2.70;0.32;;;27.50;99.90;;;;;;5058461;28;20025;-82
2021/01/10 01:16:41;;;;;;;1.58;0.20;;;27.60;99.90;;;;;;5056416;28;20128;-83
2021/01/10 01:19:09;;;;;;;1.10;0.30;;;27.90;99.90;;;;;;5086845;22;20054;-81
2021/01/10 01:21:36;;;;;;;3.45;0.20;;;28.30;99.90;;;;;;5060013;28;20033;-82
2021/01/10 01:24:04;;;;;;;1.77;0.55;;;28.00;99.90;;;;;;5058282;28;20021;-83
2021/01/10 01:26:33;;;;;;;2.03;0.30;;;28.10;99.90;;;;;;5069495;28;20044;-82
2021/01/10 01:29:00;;;;;;;5.50;0.50;;;27.80;99.90;;;;;;5077390;28;20059;-83
2021/01/10 01:31:29;;;;;;;3.42;0.77;;;28.00;99.90;;;;;;5076193;28;20039;-81
2021/01/10 01:33:57;;;;;;;1.73;0.30;;;27.80;99.90;;;;;;5070736;28;20114;-81
2021/01/10 01:36:28;;;;;;;4.90;0.70;;;27.60;99.90;;;;;;5075543;28;20089;-81
2021/01/10 01:38:58;;;;;;;2.38;0.40;;;27.50;99.90;;;;;;5077885;28;20024;-81
2021/01/10 01:41:26;;;;;;;2.28;0.60;;;27.60;99.90;;;;;;5074844;28;20024;-81
2021/01/10 01:43:54;;;;;;;1.88;0.28;;;27.90;99.90;;;;;;5077830;28;20024;-82
2021/01/10 01:46:28;;;;;;;2.97;0.30;;;27.80;99.90;;;;;;5072735;28;20116;-83
2021/01/10 01:48:58;;;;;;;2.30;0.38;;;28.10;99.90;;;;;;5077795;28;20025;-81
2021/01/10 01:51:26;;;;;;;3.55;0.40;;;28.40;99.90;;;;;;5075728;28;20035;-82
2021/01/10 01:54:42;;;;;;;2.30;0.43;;;28.60;99.90;;;;;;5077898;28;20020;-82
2021/01/10 01:57:09;;;;;;;1.80;0.38;;;28.80;99.90;;;;;;5059442;28;20477;-82
2021/01/10 01:59:37;;;;;;;1.80;0.25;;;28.80;99.90;;;;;;5077606;28;20473;-82
2021/01/10 02:02:08;;;;;;;1.70;0.30;;;28.30;99.90;;;;;;5076519;28;20028;-82
2021/01/10 02:04:57;;;;;;;2.50;0.30;;;28.30;99.90;;;;;;5078009;28;20385;-82
2021/01/10 02:07:36;;;;;;;1.13;0.30;;;28.30;99.90;;;;;;5057817;28;20390;-83
2021/01/10 02:10:08;;;;;;;0.73;0.10;;;28.30;99.90;;;;;;5059345;28;20222;-84
2021/01/10 02:12:50;;;;;;;5.00;0.70;;;28.30;99.90;;;;;;5074179;28;20099;-82
2021/01/10 02:15:23;;;;;;;2.88;0.55;;;28.60;99.90;;;;;;5072534;28;20044;-84
2021/01/10 02:17:54;;;;;;;1.02;0.13;;;28.80;99.90;;;;;;5071671;28;20024;-83
2021/01/10 02:20:24;;;;;;;1.85;0.22;;;28.70;99.90;;;;;;5074398;23;20055;-80
2021/01/10 02:23:15;;;;;;;1.65;0.15;;;28.90;99.50;;;;;;5090787;22;20110;-84
2021/01/10 02:25:44;;;;;;;0.90;0.20;;;28.60;99.90;;;;;;5053437;28;20509;-82
2021/01/10 02:28:19;;;;;;;0.22;0.08;;;29.00;99.80;;;;;;5057289;23;20644;-83
2021/01/10 02:30:47;;;;;;;3.60;0.20;;;29.20;99.40;;;;;;5046982;28;20500;-81
2021/01/10 02:33:27;;;;;;;2.55;0.10;;;28.80;98.20;;;;;;5054016;28;20151;-81
2021/01/10 02:35:55;;;;;;;1.30;0.10;;;28.20;98.60;;;;;;5059907;22;20060;-82
2021/01/10 02:39:09;;;;;;;0.43;0.10;;;28.30;99.90;;;;;;5053944;28;20028;-82
2021/01/10 02:41:49;;;;;;;1.85;0.13;;;28.70;99.90;;;;;;5039804;28;20098;-82
2021/01/10 02:44:36;;;;;;;1.23;0.20;;;28.50;99.90;;;;;;5053730;28;20126;-83
2021/01/10 02:47:05;;;;;;;2.30;0.13;;;28.60;99.00;;;;;;5052838;28;20536;-82
2021/01/10 02:49:33;;;;;;;1.33;0.20;;;28.90;98.50;;;;;;5035423;28;20040;-82
2021/01/10 02:52:01;;;;;;;1.17;0.10;;;29.10;98.50;;;;;;5071524;22;20442;-82
2021/01/10 02:54:28;;;;;;;2.70;0.25;;;29.00;97.90;;;;;;5073891;28;20161;-83
2021/01/10 02:57:18;;;;;;;1.17;0.20;;;28.90;99.90;;;;;;5070533;28;20043;-82
2021/01/10 02:59:48;;;;;;;0.85;0.22;;;29.00;97.80;;;;;;5061760;28;20033;-81
2021/01/10 03:02:18;;;;;;;0.10;0.10;;;28.90;98.70;;;;;;5053663;28;20029;-80
2021/01/10 03:04:46;;;;;;;0.90;0.20;;;28.20;98.40;;;;;;5053477;28;20482;-80
2021/01/10 03:07:14;;;;;;;2.10;0.28;;;28.50;99.30;;;;;;5053506;28;20063;-80
2021/01/10 03:09:42;;;;;;;0.80;0.13;;;28.60;98.50;;;;;;5053721;28;20029;-81
2021/01/10 03:12:25;;;;;;;1.90;0.10;;;28.30;98.90;;;;;;5072779;28;20110;-82
2021/01/10 03:14:58;;;;;;;1.45;0.10;;;28.60;97.90;;;;;;5071724;28;20116;-81
2021/01/10 03:17:39;;;;;;;0.70;0.20;;;28.40;97.80;;;;;;5073222;28;20101;-81
2021/01/10 03:20:12;;;;;;;0.93;0.13;;;28.30;98.60;;;;;;5070625;28;20017;-81
2021/01/10 03:22:40;;;;;;;1.77;0.10;;;28.30;99.10;;;;;;5054648;28;20568;-81
2021/01/10 03:25:09;;;;;;;2.83;0.77;;;28.40;98.20;;;;;;5084890;22;20016;-81
2021/01/10 03:27:37;;;;;;;1.67;0.40;;;28.60;98.80;;;;;;5053061;28;20497;-81
2021/01/10 03:30:07;;;;;;;1.25;0.10;;;28.20;98.30;;;;;;5029917;28;20033;-82
2021/01/10 03:32:34;;;;;;;1.02;0.10;;;27.70;98.30;;;;;;5013112;28;20028;-81
2021/01/10 03:35:03;;;;;;;1.92;0.20;;;27.80;99.40;;;;;;5030698;28;20478;-81
2021/01/10 03:37:31;;;;;;;1.60;0.30;;;27.70;99.00;;;;;;5032828;28;20057;-81
2021/01/10 03:39:58;;;;;;;1.15;0.10;;;27.80;98.60;;;;;;5031564;28;20030;-84
2021/01/10 03:42:25;;;;;;;2.13;0.20;;;27.70;98.60;;;;;;5053110;28;20401;-82
2021/01/10 03:44:52;;;;;;;1.30;0.20;;;27.60;98.40;;;;;;5049252;28;20041;-84
2021/01/10 03:47:20;;;;;;;2.65;0.17;;;27.50;99.90;;;;;;5033471;28;20398;-82
2021/01/10 03:49:47;;;;;;;1.88;0.20;;;27.50;98.10;;;;;;5030899;28;20021;-82
2021/01/10 03:52:14;;;;;;;0.50;0.15;;;27.50;99.50;;;;;;5052549;28;20032;-82
2021/01/10 03:54:42;;;;;;;1.60;0.10;;;27.40;98.40;;;;;;5050647;28;20031;-82
2021/01/10 03:57:09;;;;;;;1.38;0.10;;;27.30;99.50;;;;;;5020247;28;20030;-82
2021/01/10 03:59:36;;;;;;;1.83;0.20;;;27.10;99.60;;;;;;5052399;28;20104;-80
2021/01/10 04:02:03;;;;;;;1.65;0.10;;;27.20;99.00;;;;;;5050034;28;20036;-79
2021/01/10 04:04:31;;;;;;;0.22;0.00;;;27.40;98.80;;;;;;5052752;28;20021;-81
2021/01/10 04:06:58;;;;;;;1.92;0.28;;;27.20;99.30;;;;;;5031267;28;20079;-81
2021/01/10 04:09:25;;;;;;;0.75;0.10;;;27.20;99.70;;;;;;5030982;28;20033;-82
2021/01/10 04:11:53;;;;;;;0.68;0.20;;;27.00;99.90;;;;;;5013566;28;20486;-81
2021/01/10 04:14:20;;;;;;;0.93;0.10;;;26.90;99.90;;;;;;5011946;28;20025;-80
2021/01/10 04:16:52;;;;;;;1.27;0.10;;;27.00;99.80;;;;;;5025568;28;20403;-82
2021/01/10 04:19:21;;;;;;;0.25;0.10;;;27.20;99.90;;;;;;5027521;28;20096;-81
2021/01/10 04:21:48;;;;;;;0.85;0.10;;;26.60;99.90;;;;;;5035623;28;20402;-80
2021/01/10 04:24:16;;;;;;;3.30;0.38;;;26.60;99.90;;;;;;5032469;28;20041;-80
2021/01/10 04:26:52;;;;;;;3.75;1.08;;;26.50;99.90;;;;;;5064427;22;20045;-80
2021/01/10 04:29:20;;;;;;;1.50;0.17;;;26.40;99.90;;;;;;5052483;22;20072;-82
2021/01/10 04:31:48;;;;;;;1.88;0.10;;;26.50;99.90;;;;;;5050591;28;20456;-81
2021/01/10 04:34:17;;;;;;;1.92;0.25;;;26.70;99.90;;;;;;5057615;22;20045;-81
2021/01/10 04:36:44;;;;;;;2.03;0.30;;;26.50;99.90;;;;;;5050200;28;20246;-81
2021/01/10 04:39:11;;;;;;;2.05;0.22;;;26.80;99.90;;;;;;5035859;28;20470;-81
2021/01/10 04:41:39;;;;;;;0.98;0.20;;;26.40;99.90;;;;;;5031804;28;20513;-81
2021/01/10 04:44:07;;;;;;;2.55;0.40;;;26.30;99.90;;;;;;5054015;22;20045;-80
2021/01/10 04:46:35;;;;;;;1.35;0.38;;;25.90;99.90;;;;;;5050041;28;20029;-82
2021/01/10 04:49:03;;;;;;;1.67;0.20;;;26.00;99.90;;;;;;5050254;28;20021;-82
2021/01/10 04:51:31;;;;;;;0.57;0.20;;;25.90;99.90;;;;;;5050135;28;20037;-81
2021/01/10 04:54:02;;;;;;;1.38;0.10;;;25.80;99.90;;;;;;5052394;28;20032;-81
2021/01/10 04:56:31;;;;;;;5.30;0.35;;;25.80;99.90;;;;;;5050377;28;20029;-82
2021/01/10 04:59:02;;;;;;;1.85;0.10;;;25.80;99.90;;;;;;5069584;22;20469;-82
2021/01/10 05:01:41;;;;;;;0.60;0.10;;;25.90;99.90;;;;;;5070013;28;20029;-81
2021/01/10 05:04:08;;;;;;;1.83;0.35;;;25.90;99.90;;;;;;5071758;28;20381;-82
2021/01/10 05:06:36;;;;;;;1.95;0.05;;;26.00;99.90;;;;;;5051588;28;20033;-82
2021/01/10 05:09:08;;;;;;;2.30;0.15;;;25.80;99.90;;;;;;5068098;28;20104;-81
2021/01/10 05:11:35;;;;;;;7.70;0.73;;;25.80;99.90;;;;;;5063452;28;20052;-82
2021/01/10 05:14:04;;;;;;;1.10;0.00;;;25.80;99.90;;;;;;5070702;28;20024;-82
2021/01/10 05:16:35;;;;;;;1.55;0.20;;;25.80;99.90;;;;;;5065629;28;20037;-81
2021/01/10 05:19:03;;;;;;;4.45;0.40;;;25.80;99.90;;;;;;5072102;28;20025;-82
2021/01/10 05:21:32;;;;;;;1.80;0.10;;;25.80;99.90;;;;;;5069618;28;20028;-81
2021/01/10 05:23:59;;;;;;;3.25;0.20;;;25.70;99.90;;;;;;5052005;28;20362;-82
2021/01/10 05:26:35;;;;;;;0.90;0.30;;;25.70;99.90;;;;;;5065443;28;20036;-82
2021/01/10 05:29:09;;;;;;;1.95;0.30;;;25.70;99.90;;;;;;5071584;28;20074;-82
2021/01/10 05:31:42;;;;;;;2.10;0.10;;;25.70;99.90;;;;;;5069851;28;20031;-82
2021/01/10 05:34:14;;;;;;;2.65;0.30;;;25.50;99.90;;;;;;5068625;22;20053;-81
2021/01/10 05:36:43;;;;;;;5.95;0.80;;;25.30;99.90;;;;;;5031651;28;20402;-82
2021/01/10 05:39:23;;;;;;;2.92;0.20;;;25.20;99.90;;;;;;5033755;28;20071;-82
2021/01/10 05:42:03;;;;;;;1.60;0.17;;;25.30;99.90;;;;;;5048824;28;20029;-82
2021/01/10 05:44:32;;;;;;;1.70;0.30;;;25.40;99.90;;;;;;5050664;28;20024;-82
2021/01/10 05:47:08;;;;;;;0.28;0.00;;;25.40;99.90;;;;;;5051466;28;20083;-82
2021/01/10 05:49:44;;;;;;;0.40;0.10;;;25.50;99.90;;;;;;5054437;28;20029;-82
2021/01/10 05:52:13;;;;;;;0.30;0.00;;;25.40;99.90;;;;;;5054608;28;20039;-82
2021/01/10 05:54:53;;;;;;;1.20;0.10;;;25.40;99.90;;;;;;5052526;28;20070;-81
2021/01/10 05:57:29;;;;;;;0.20;0.00;;;25.30;99.90;;;;;;5035565;28;20026;-82
2021/01/10 05:59:57;;;;;;;0.47;0.00;;;25.20;99.90;;;;;;5042434;28;20033;-83
2021/01/10 06:02:35;;;;;;;0.45;0.10;;;25.20;99.90;;;;;;5051075;28;20033;-82
2021/01/10 06:05:09;;;;;;;1.48;0.10;;;25.20;99.90;;;;;;5053125;28;20382;-82
2021/01/10 06:07:36;;;;;;;1.77;0.10;;;25.20;99.90;;;;;;5054747;28;20249;-83
2021/01/10 06:10:05;;;;;;;1.90;0.03;;;25.20;99.90;;;;;;5036563;28;20747;-84
2021/01/10 06:12:32;;;;;;;0.95;0.08;;;25.00;99.90;;;;;;5056316;28;20036;-83
2021/01/10 06:15:15;;;;;;;2.05;0.10;;;25.00;99.90;;;;;;5033205;28;20064;-83
2021/01/10 06:17:47;;;;;;;3.10;0.55;;;24.90;99.90;;;;;;5034788;28;20108;-83
2021/01/10 06:20:25;;;;;;;2.38;0.17;;;24.80;99.90;;;;;;5040777;28;20108;-84
2021/01/10 06:22:54;;;;;;;0.25;0.10;;;24.80;99.90;;;;;;5056439;28;20025;-81
2021/01/10 06:25:27;;;;;;;0.22;0.00;;;24.80;99.90;;;;;;5050629;28;20069;-84
2021/01/10 06:28:11;;;;;;;2.53;0.20;;;24.80;99.90;;;;;;5053385;28;20112;-82
2021/01/10 06:30:52;;;;;;;3.10;0.10;;;24.90;99.90;;;;;;5035616;28;20044;-82
2021/01/10 06:33:31;;;;;;;1.40;0.10;;;24.80;99.90;;;;;;5067157;22;20178;-81
2021/01/10 06:38:32;;;;;;;0.55;0.10;;;24.70;99.90;;;;;;5088572;22;20055;-83
2021/01/10 06:41:21;;;;;;;0.82;0.20;;;24.70;99.90;;;;;;5080199;22;20048;-82
2021/01/10 06:44:01;;;;;;;1.33;0.35;;;24.60;99.90;;;;;;5035519;28;20037;-81
2021/01/10 06:46:29;;;;;;;1.70;0.10;;;24.70;99.90;;;;;;5052039;28;20364;-82
2021/01/10 06:48:56;;;;;;;1.30;0.10;;;24.70;99.90;;;;;;5053353;28;20261;-83
2021/01/10 06:51:25;;;;;;;0.20;0.10;;;24.60;99.90;;;;;;5085524;22;20048;-83
2021/01/10 06:53:54;;;;;;;1.50;0.03;;;24.60;99.90;;;;;;5073323;28;20070;-82
2021/01/10 06:56:22;;;;;;;1.13;0.20;;;24.60;99.90;;;;;;5068806;28;20123;-79
2021/01/10 06:59:10;;;;;;;0.57;0.32;;;24.60;99.90;;;;;;5071108;28;20027;-80
2021/01/10 07:01:53;;;;;;;0.50;0.10;;;24.50;99.90;;;;;;5064450;28;20032;-80
2021/01/10 07:04:33;;;;;;;2.15;0.35;;;24.50;99.90;;;;;;5054130;28;20040;-81
2021/01/10 07:07:00;;;;;;;1.85;0.10;;;24.50;99.90;;;;;;5069330;22;20136;-81
2021/01/10 07:09:47;;;;;;;1.17;0.00;;;24.40;99.90;;;;;;5053046;28;20083;-80
2021/01/10 07:12:21;;;;;;;1.83;0.10;;;24.20;99.90;;;;;;5060845;28;20037;-82
2021/01/10 07:14:48;;;;;;;0.65;0.25;;;24.30;99.90;;;;;;5022429;28;20091;-79
2021/01/10 07:17:18;;;;;;;1.00;0.10;;;24.30;99.90;;;;;;5036186;28;20530;-79
2021/01/10 07:19:47;;;;;;;2.25;0.10;;;24.20;99.90;;;;;;5051111;28;20024;-80
2021/01/10 07:22:25;;;;;;;0.65;0.20;;;24.20;99.90;;;;;;5044356;28;20040;-78
2021/01/10 07:24:53;;;;;;;1.00;0.10;;;24.10;99.90;;;;;;5033557;28;20036;-79
2021/01/10 07:27:34;;;;;;;0.95;0.10;;;24.10;99.90;;;;;;5052786;28;20025;-79
2021/01/10 07:30:22;;;;;;;0.80;0.20;;;24.10;99.90;;;;;;5040692;28;20021;-78
2021/01/10 07:32:50;;;;;;;1.48;0.28;;;24.20;99.90;;;;;;5051939;28;20021;-79
2021/01/10 07:35:18;;;;;;;2.75;0.50;;;24.10;99.90;;;;;;5032689;28;20033;-77
2021/01/10 07:37:46;;;;;;;2.75;0.28;;;24.00;99.90;;;;;;5052357;28;20044;-78
2021/01/10 07:40:22;;;;;;;1.45;0.10;;;24.10;99.90;;;;;;5053649;23;20069;-77
2021/01/10 07:43:01;;;;;;;2.28;0.15;;;24.00;99.90;;;;;;5032615;28;20017;-78
2021/01/10 07:45:39;;;;;;;1.58;0.30;;;23.90;99.90;;;;;;5030392;28;20029;-78
2021/01/10 07:48:07;;;;;;;3.63;0.20;;;23.80;99.90;;;;;;5040194;28;20476;-77
2021/01/10 07:50:34;;;;;;;0.80;0.20;;;23.80;99.90;;;;;;5030653;28;20056;-78
2021/01/10 07:53:02;;;;;;;0.70;0.10;;;23.70;99.90;;;;;;5051637;28;20075;-78
2021/01/10 07:55:33;;;;;;;1.75;0.20;;;23.60;99.90;;;;;;5044288;28;20033;-78
2021/01/10 07:58:03;;;;;;;3.15;0.50;;;23.60;99.90;;;;;;5034506;28;20490;-78
2021/01/10 08:00:57;;;;;;;2.08;0.17;;;23.50;99.90;;;;;;5037687;28;20047;-79
2021/01/10 08:03:27;;;;;;;2.60;0.30;;;23.40;99.90;;;;;;5051331;28;20032;-78
2021/01/10 08:06:00;;;;;;;1.20;0.30;;;23.40;99.90;;;;;;5050334;28;20033;-78
2021/01/10 08:08:41;;;;;;;1.83;0.40;;;23.40;99.90;;;;;;5051180;28;20533;-77
2021/01/10 08:11:09;;;;;;;1.42;0.40;;;23.40;99.90;;;;;;5049379;28;20086;-77
2021/01/10 08:13:37;;;;;;;0.80;0.10;;;23.30;99.90;;;;;;5051958;28;20027;-77
2021/01/10 08:16:08;;;;;;;2.17;0.25;;;23.30;99.90;;;;;;5049224;28;20033;-78
2021/01/10 08:18:39;;;;;;;0.25;0.10;;;23.20;99.90;;;;;;5050940;28;20052;-77
2021/01/10 08:21:11;;;;;;;1.30;0.25;;;23.20;99.90;;;;;;5043220;28;20025;-78
2021/01/10 08:23:40;;;;;;;1.17;0.20;;;23.20;99.90;;;;;;5031821;28;20056;-78
2021/01/10 08:26:11;;;;;;;2.13;0.30;;;23.20;99.90;;;;;;5036322;28;20029;-78
2021/01/10 08:28:44;;;;;;;1.42;0.38;;;23.20;99.90;;;;;;5039735;28;20060;-77
2021/01/10 08:31:13;;;;;;;0.77;0.20;;;23.20;99.90;;;;;;5039436;28;20041;-78
2021/01/10 08:33:41;;;;;;;1.55;0.30;;;23.10;99.90;;;;;;5031333;28;20029;-78
2021/01/10 08:36:23;;;;;;;1.92;0.85;;;23.10;99.90;;;;;;5031647;28;20401;-78
2021/01/10 08:38:57;;;;;;;1.15;0.30;;;23.10;99.90;;;;;;5051551;28;20033;-78
2021/01/10 08:41:35;;;;;;;0.20;0.10;;;23.00;99.90;;;;;;5072236;22;20041;-78
2021/01/10 08:44:04;;;;;;;1.83;0.20;;;22.90;99.90;;;;;;5072082;23;20044;-78
2021/01/10 08:46:33;;;;;;;1.65;0.22;;;22.80;99.90;;;;;;5066917;28;20494;-81
2021/01/10 08:49:01;;;;;;;0.98;0.17;;;22.80;99.90;;;;;;5073789;22;20049;-81
2021/01/10 08:51:48;;;;;;;0.98;0.10;;;22.70;99.90;;;;;;5045171;28;20549;-87
2021/01/10 08:54:17;;;;;;;1.05;0.10;;;22.60;99.90;;;;;;5032732;28;20478;-86
2021/01/10 08:56:49;;;;;;;0.30;0.10;;;22.60;99.90;;;;;;5040567;23;20425;-85
2021/01/10 08:59:19;;;;;;;2.60;0.25;;;22.50;99.90;;;;;;5051088;28;20065;-86
2021/01/10 09:01:47;;;;;;;0.82;0.10;;;22.50;99.90;;;;;;5051024;28;20023;-88
2021/01/10 09:04:17;;;;;;;0.63;0.15;;;22.50;99.90;;;;;;5017809;28;20080;-88
2021/01/10 09:07:05;;;;;;;3.92;0.30;;;22.50;99.90;;;;;;5039759;28;20027;-88
2021/01/10 09:09:33;;;;;;;5.50;0.28;;;22.40;99.90;;;;;;5038888;28;20025;-87
2021/01/10 09:12:09;;;;;;;4.22;0.30;;;22.40;99.90;;;;;;5035397;28;20029;-87
2021/01/10 09:14:50;;;;;;;3.67;0.38;;;22.40;99.90;;;;;;5045181;23;20514;-87
2021/01/10 09:17:32;;;;;;;4.82;0.15;;;22.40;99.90;;;;;;5030874;28;20449;-86
2021/01/10 09:20:29;;;;;;;1.20;0.15;;;22.30;99.90;;;;;;5031652;28;20021;-86
2021/01/10 09:23:06;;;;;;;2.50;0.17;;;22.20;99.90;;;;;;5027848;28;20037;-87
2021/01/10 09:25:34;;;;;;;0.90;0.10;;;22.30;99.90;;;;;;5021844;28;20044;-87
2021/01/10 09:28:18;;;;;;;0.60;0.10;;;22.20;99.90;;;;;;5034978;28;20025;-87
2021/01/10 09:30:51;;;;;;;1.97;0.30;;;22.20;99.90;;;;;;5034374;28;20429;-87
2021/01/10 09:33:30;;;;;;;1.20;0.25;;;22.10;99.90;;;;;;5016384;28;20263;-87
2021/01/10 09:36:03;;;;;;;0.90;0.17;;;22.20;99.90;;;;;;5008483;28;20050;-87
2021/01/10 09:38:32;;;;;;;1.52;0.38;;;22.10;99.90;;;;;;5025650;28;20029;-87
2021/01/10 09:41:15;;;;;;;1.55;0.00;;;22.10;99.90;;;;;;5030757;28;20029;-88
2021/01/10 09:43:49;;;;;;;1.00;0.30;;;22.10;99.90;;;;;;5032647;28;20033;-87
2021/01/10 09:46:35;;;;;;;;;;;22.00;99.90;;;;;;5045980;22;20045;-86
2021/01/10 09:49:05;;;;;;;1.45;0.20;;;22.00;99.90;;;;;;5023071;28;19920;-87
2021/01/10 09:51:56;;;;;;;1.08;0.10;;;22.00;99.90;;;;;;5000806;28;20018;-89
2021/01/10 09:54:29;;;;;;;0.30;0.00;;;22.00;99.90;;;;;;5001832;28;20595;-84
2021/01/10 09:56:58;;;;;;;2.05;0.10;;;22.00;99.90;;;;;;5008381;28;20041;-86
2021/01/10 09:59:39;;;;;;;1.35;0.20;;;22.00;99.90;;;;;;5012468;28;20026;-85
2021/01/10 10:02:15;;;;;;;1.50;0.20;;;21.90;99.90;;;;;;5006610;28;20033;-85
2021/01/10 10:04:45;;;;;;;0.45;0.20;;;21.80;99.90;;;;;;5013482;28;20018;-84
2021/01/10 10:07:14;;;;;;;0.85;0.10;;;21.90;99.90;;;;;;5008342;28;20511;-85
2021/01/10 10:09:56;;;;;;;2.85;0.20;;;21.80;99.90;;;;;;5000824;28;20015;-85
2021/01/10 10:12:24;;;;;;;1.38;0.20;;;21.80;99.90;;;;;;5013640;28;20036;-85
2021/01/10 10:15:07;;;;;;;0.75;0.10;;;21.80;99.90;;;;;;5012793;28;20029;-86
2021/01/10 10:17:39;;;;;;;1.02;0.10;;;21.80;99.90;;;;;;5006597;28;20038;-85
2021/01/10 10:20:11;;;;;;;3.45;0.20;;;21.80;99.90;;;;;;5007579;28;20121;-85
2021/01/10 10:22:39;;;;;;;2.17;0.10;;;21.70;99.90;;;;;;5003163;28;20356;-85
2021/01/10 10:25:14;;;;;;;2.30;0.43;;;21.70;99.90;;;;;;4986250;28;20077;-85
2021/01/10 10:28:01;;;;;;;3.25;0.32;;;21.70;99.90;;;;;;5009820;28;20034;-85
2021/01/10 10:30:28;;;;;;;2.70;0.55;;;21.70;99.90;;;;;;4997765;28;20375;-85
2021/01/10 10:32:56;;;;;;;1.42;0.38;;;21.70;99.90;;;;;;5011141;28;20387;-84
2021/01/10 10:35:24;;;;;;;1.05;0.17;;;21.60;99.90;;;;;;5008037;28;20123;-84
2021/01/10 10:37:52;;;;;;;1.30;0.20;;;21.70;99.90;;;;;;5010093;28;20032;-84
2021/01/10 10:40:19;;;;;;;1.08;0.10;;;21.70;99.90;;;;;;5006095;28;20026;-84
2021/01/10 10:42:48;;;;;;;0.22;0.10;;;21.70;99.90;;;;;;5008417;28;20037;-83
2021/01/10 10:45:16;;;;;;;1.55;0.55;;;21.60;99.90;;;;;;5000205;28;20518;-85
2021/01/10 10:47:44;;;;;;;1.75;0.10;;;21.60;99.90;;;;;;5032387;22;20055;-85
2021/01/10 10:50:12;;;;;;;1.08;0.17;;;21.60;99.90;;;;;;5067134;23;20053;-85
2021/01/10 10:52:41;;;;;;;1.13;0.20;;;21.60;99.90;;;;;;5056535;22;20465;-84
2021/01/10 10:55:11;;;;;;;2.53;0.10;;;21.60;99.90;;;;;;5026845;23;21010;-84
2021/01/10 10:57:43;;;;;;;0.82;0.10;;;21.60;99.90;;;;;;5051586;28;20797;-84
2021/01/10 11:00:11;;;;;;;1.60;0.10;;;21.60;99.90;;;;;;5041990;28;20049;-84
2021/01/10 11:02:38;;;;;;;2.60;0.20;;;21.60;99.90;;;;;;5038143;28;20064;-85
2021/01/10 11:05:07;;;;;;;1.27;0.10;;;21.60;99.90;;;;;;5067326;23;20064;-82
2021/01/10 11:07:37;;;;;;;1.08;0.10;;;21.60;99.90;;;;;;5052116;28;20036;-84
2021/01/10 11:10:06;;;;;;;2.17;0.15;;;21.50;99.90;;;;;;5043083;28;20021;-84
2021/01/10 11:12:34;;;;;;;1.70;0.20;;;21.50;99.90;;;;;;5040966;28;20032;-83
2021/01/10 11:15:02;;;;;;;1.27;0.00;;;21.50;99.90;;;;;;5039633;28;20021;-84
2021/01/10 11:17:29;;;;;;;2.35;0.20;;;21.50;99.90;;;;;;5033365;28;20429;-84
2021/01/10 11:19:56;;;;;;;1.60;0.32;;;21.50;99.90;;;;;;5026149;28;20061;-85
2021/01/10 11:22:29;;;;;;;1.73;0.38;;;21.50;99.90;;;;;;5042390;23;20425;-84
2021/01/10 11:24:57;;;;;;;1.88;0.10;;;21.50;99.90;;;;;;5025521;28;20038;-85
2021/01/10 11:27:24;;;;;;;1.65;0.13;;;21.60;99.90;;;;;;5028801;28;20441;-84
2021/01/10 11:29:51;;;;;;;1.60;0.20;;;21.50;99.90;;;;;;5029726;28;20022;-84
2021/01/10 11:32:18;;;;;;;2.00;0.20;;;21.50;99.90;;;;;;5030610;28;20032;-85
2021/01/10 11:34:46;;;;;;;1.45;0.38;;;21.40;99.90;;;;;;5030938;28;20025;-85
2021/01/10 11:37:13;;;;;;;2.22;0.28;;;21.40;99.90;;;;;;5031605;28;20095;-84
2021/01/10 11:39:40;;;;;;;0.77;0.22;;;21.30;99.90;;;;;;5032007;28;20112;-84
2021/01/10 11:42:09;;;;;;;1.73;0.15;;;21.30;99.90;;;;;;5030692;28;20029;-84
2021/01/10 11:44:36;;;;;;;3.08;0.28;;;21.30;99.90;;;;;;5031732;28;20021;-84
2021/01/10 11:47:03;;;;;;;2.33;0.10;;;21.40;99.90;;;;;;5032122;28;20110;-84
2021/01/10 11:49:31;;;;;;;3.85;0.20;;;21.30;99.90;;;;;;5031026;28;20032;-84
2021/01/10 11:51:58;;;;;;;2.25;0.20;;;21.30;99.90;;;;;;5031334;28;20116;-85
2021/01/10 11:54:25;;;;;;;1.83;0.20;;;21.30;99.90;;;;;;5038799;23;20053;-85
2021/01/10 11:56:53;;;;;;;1.65;0.15;;;21.30;99.90;;;;;;5070929;28;20044;-85
2021/01/10 11:59:20;;;;;;;2.40;0.22;;;21.30;99.90;;;;;;5062902;28;20120;-84
2021/01/10 12:01:47;;;;;;;2.00;0.20;;;21.20;99.90;;;;;;5059760;28;20034;-85
2021/01/10 12:04:14;;;;;;;3.58;0.20;;;21.20;99.90;;;;;;5066205;28;20021;-84
2021/01/10 12:06:42;;;;;;;2.25;0.45;;;21.20;99.90;;;;;;5058548;28;20108;-84
2021/01/10 12:09:13;;;;;;;1.77;0.20;;;21.20;99.90;;;;;;5050739;28;20059;-84
2021/01/10 12:11:41;;;;;;;1.10;0.20;;;21.20;99.90;;;;;;5051551;28;20095;-84
2021/01/10 12:14:09;;;;;;;1.58;0.25;;;21.20;99.90;;;;;;5051528;28;20032;-84
2021/01/10 12:16:37;;;;;;;0.63;0.10;;;21.20;99.90;;;;;;5067128;28;20043;-84
2021/01/10 12:19:06;;;;;;;0.43;0.22;;;21.20;99.90;;;;;;5064170;28;20047;-84
2021/01/10 12:21:33;;;;;;;1.55;0.10;;;21.20;99.90;;;;;;5060825;28;20020;-84
2021/01/10 12:24:00;;;;;;;0.65;0.03;;;21.20;99.90;;;;;;5060227;28;20028;-84
2021/01/10 12:26:29;;;;;;;5.22;0.20;;;21.20;99.90;;;;;;5066183;28;20017;-84
2021/01/10 12:28:56;;;;;;;0.85;0.20;;;21.20;99.90;;;;;;5059132;28;20075;-84
2021/01/10 12:31:23;;;;;;;0.73;0.20;;;21.10;99.90;;;;;;5050989;28;20132;-84
2021/01/10 12:33:51;;;;;;;1.50;0.30;;;21.10;99.90;;;;;;5054565;28;20025;-82
2021/01/10 12:36:18;;;;;;;1.42;0.35;;;21.00;99.90;;;;;;5059964;28;20051;-83
2021/01/10 12:38:46;;;;;;;0.43;0.10;;;21.00;99.90;;;;;;5060334;28;20021;-83
2021/01/10 12:41:13;;;;;;;1.20;0.20;;;21.00;99.90;;;;;;5052972;28;20072;-85
2021/01/10 12:43:40;;;;;;;0.68;0.20;;;20.90;99.90;;;;;;5063213;28;20028;-84
2021/01/10 12:46:08;;;;;;;1.65;0.10;;;20.90;99.90;;;;;;5051342;28;20566;-84
2021/01/10 12:48:35;;;;;;;1.38;0.10;;;20.90;99.90;;;;;;5051284;28;20473;-84
2021/01/10 12:51:02;;;;;;;0.28;0.10;;;20.80;99.90;;;;;;5051125;28;20029;-84
2021/01/10 12:53:29;;;;;;;1.00;0.25;;;20.80;99.90;;;;;;5057407;28;20021;-84
2021/01/10 12:55:57;;;;;;;1.90;0.10;;;20.80;99.90;;;;;;5079112;22;20113;-84
2021/01/10 12:58:24;;;;;;;1.50;0.20;;;20.80;99.90;;;;;;5059133;22;20124;-84
2021/01/10 13:00:52;;;;;;;0.25;0.10;;;20.80;99.90;;;;;;5049197;28;20025;-84
2021/01/10 13:03:19;;;;;;;0.43;0.20;;;20.80;99.90;;;;;;5071491;23;20049;-84
2021/01/10 13:05:46;;;;;;;1.20;0.10;;;20.80;99.90;;;;;;5069993;28;20035;-84
2021/01/10 13:08:14;;;;;;;1.17;0.10;;;20.80;99.90;;;;;;5069655;28;20108;-84
2021/01/10 13:10:41;;;;;;;0.85;0.10;;;20.80;99.90;;;;;;5069568;28;20025;-84